Terminal Aerodrome Forecast
Issued by NWS Spokane, WA

Home | Current Version | Previous Version | Text Only | Print | Product List | Glossary On
Versions: 1 2 3 4 5 6 7 8 9 10 11 12 13 14 15 16 17 18 19 20 21 22 23 24 25 26 27 28 29 30 31 32 33 34 35
871
FTUS46 KOTX 080528
TAFGEG
TAF
KGEG 080528Z 0806/0906 06005KT P6SM BKN080 BKN120
     FM080900 06004KT 6SM BR VCFG SCT001 SCT250
     FM081300 06004KT 1/2SM FZFG VV001
     FM081800 07004KT 6SM BR SCT003
     FM082100 06004KT P6SM SKC
     FM090400 03003KT P6SM FEW004=

USA.gov is the U.S. government's official web portal to all federal, state and local government web resources and services.